Terminal Aerodrome Forecast
Issued by NWS Shreveport, LA

Home | Current Version | Previous Version | Text Only | Print | Product List | Glossary On
Versions: 1 2 3 4 5 6 7 8 9 10 11 12 13 14 15
248
FTUS44 KSHV 191151
TAFLFK
TAF
KLFK 191151Z 1912/2012 15003KT P6SM OVC050
     FM191500 15005KT P6SM OVC045
     FM200000 14006KT P6SM OVC040
      TEMPO 2003/2006 6SM BR OVC025
     FM200600 15007KT 3SM BR OVC007
     FM201000 13008KT 1 1/2SM BR OVC003=

USA.gov is the U.S. government's official web portal to all federal, state and local government web resources and services.